Hickory Regional Airport
KHKY : now visible

Airfield :











YOU CAN JOIN US ON...

 
LOGIN :

Register | Disclaimer

   EN    FR    IT 

 









Legend :    VFR   Marginal VFR   IFR   Intensive IFR   Very Intensive IFR
Visi :
Ceiling :
>= 8 km
>= 3000ft
5 to 8 km
1000 to 3000 ft
1500m to 5 km
500 to 1000 ft
800 to 1500m
200 to 500 ft
< 800m
< 200 ft
Symbols :   Thunderstorms  Fog  Heavy snow  Heavy precipitations  Wind > 20 kt







- Airport Elevation : 1190 ft
- IATA code : HKY


KHKY - Hickory Regional

CURRENT METAR :
  • 210553Z AUTO 00000KT 10SM CLR 24/23 A3003 RMK AO2 SLP145 T02440228 10261 20244 58005

EXPIRED METARs :
  • 210453Z AUTO 21006KT 10SM CLR 26/23 A3006 RMK AO2 SLP154 T02560228 403280222
  • 210353Z AUTO 19004KT 10SM CLR 25/23 A3005 RMK AO2 SLP150 T02500228

TAF KHKY
Valid from the 21 at 06:00 until the 22 at 06:00 UTC


210534Z 2106/2206 21006KT P6SM BKN250
FM211100 VRB02KT 6SM BR FEW250
FM211300 24003KT P6SM FEW025
FM211700 22006KT P6SM SCT050
FM220000 25004KT P6SM SCT250
KZTL FIR / North America



MET'MAP, your aeronautical weather chart ! - Copyright ORBIFLY December 2007 - Disclaimer

ORBIFLY MET'MAP TEAM :

Programming & Development : Alexandra Zaïnal
Concept & Development : Baudouin d'Aumeries
Co-Development & Prog : Marc-Olivier Méhu
Technical & hardware support : Manuel Goepfert

Contact : metmap@orbifly.com




SOURCES & CREDITS :

   NOAA       Earth
Advisory